Time;durP1;ratioP1;P1;durP2;ratioP2;P2;SDS_P1;SDS_P2;PMS_P1;PMS_P2;Temp;Humidity;BMP_temperature;BMP_pressure;BME280_temperature;BME280_humidity;BME280_pressure;Samples;Min_cycle;Max_cycle;Signal;HPM_P1;HPM_P2
2022/11/13 00:01:23;;;;;;;0.30;0.30;;;;;;;13.93;52.12;96491.91;4957536;28;20454;-70
2022/11/13 00:04:09;;;;;;;0.23;0.23;;;;;;;14.19;51.30;96490.50;4970673;28;20546;-73
2022/11/13 00:06:55;;;;;;;0.93;0.90;;;;;;;13.77;51.39;96486.63;4970481;28;20458;-72
2022/11/13 00:09:43;;;;;;;0.77;0.77;;;;;;;13.83;51.76;96459.34;4970573;28;20497;-70
2022/11/13 00:12:30;;;;;;;0.43;0.43;;;;;;;14.02;51.71;96476.50;4969893;28;20448;-71
2022/11/13 00:15:15;;;;;;;0.00;0.00;;;;;;;13.93;51.42;96481.38;4960654;28;20453;-71
2022/11/13 00:18:01;;;;;;;0.10;0.10;;;;;;;14.10;51.25;96482.19;4957241;28;20449;-71
2022/11/13 00:20:47;;;;;;;0.10;0.10;;;;;;;13.92;52.11;96479.00;4958413;28;20446;-72
2022/11/13 00:23:33;;;;;;;0.00;0.00;;;;;;;14.11;51.44;96477.72;4958381;28;21158;-72
2022/11/13 00:26:21;;;;;;;0.20;0.20;;;;;;;14.00;51.46;96478.56;4954675;28;20479;-73
2022/11/13 00:29:08;;;;;;;0.57;0.50;;;;;;;14.09;51.93;96475.31;4951215;28;20445;-73
2022/11/13 00:31:53;;;;;;;0.27;0.27;;;;;;;14.02;52.14;96469.41;4953934;28;20434;-72
2022/11/13 00:34:38;;;;;;;0.20;0.20;;;;;;;13.76;52.55;96458.66;4957004;28;20473;-73
2022/11/13 00:37:32;;;;;;;0.00;0.00;;;;;;;13.55;53.62;96473.31;4976692;28;20461;-72
2022/11/13 00:40:19;;;;;;;0.67;0.67;;;;;;;13.60;53.44;96475.22;4959531;28;20449;-73
2022/11/13 00:43:04;;;;;;;0.20;0.20;;;;;;;13.77;53.00;96468.19;4959867;28;20475;-71
2022/11/13 00:45:50;;;;;;;0.73;0.67;;;;;;;13.97;52.73;96466.69;4965197;28;20486;-71
2022/11/13 00:48:36;;;;;;;0.23;0.23;;;;;;;13.90;53.08;96459.97;4957726;28;20529;-73
2022/11/13 00:51:21;;;;;;;0.43;0.43;;;;;;;13.63;52.58;96436.03;4962468;28;20908;-73
2022/11/13 00:54:07;;;;;;;0.00;0.00;;;;;;;13.96;52.16;96444.00;4970831;28;20544;-73
2022/11/13 00:56:52;;;;;;;0.10;0.10;;;;;;;14.26;51.71;96475.34;4973569;28;21151;-73
2022/11/13 00:59:37;;;;;;;0.77;0.63;;;;;;;14.25;51.77;96465.81;4960982;28;20434;-71
2022/11/13 01:02:23;;;;;;;1.00;0.20;;;;;;;14.01;51.77;96456.47;4972074;28;20453;-74
2022/11/13 01:05:08;;;;;;;0.00;0.00;;;;;;;13.99;52.47;96469.09;4962583;28;20611;-70
2022/11/13 01:07:54;;;;;;;0.60;0.60;;;;;;;14.20;52.20;96465.72;4973088;28;20441;-72
2022/11/13 01:10:43;;;;;;;0.30;0.30;;;;;;;13.84;52.71;96468.81;4973314;28;20449;-71
2022/11/13 01:13:34;;;;;;;2.07;1.10;;;;;;;13.85;52.10;96467.81;4964255;28;20527;-71
2022/11/13 01:16:26;;;;;;;0.07;0.07;;;;;;;14.13;51.95;96465.09;4953619;28;20451;-71
2022/11/13 01:19:11;;;;;;;0.07;0.07;;;;;;;13.96;51.70;96459.81;4966617;28;20446;-72
2022/11/13 01:21:56;;;;;;;0.00;0.00;;;;;;;13.81;52.51;96453.50;4961414;28;20434;-71
2022/11/13 01:24:42;;;;;;;0.43;0.43;;;;;;;14.09;52.18;96462.16;4969817;28;21033;-72
2022/11/13 01:27:27;;;;;;;0.37;0.37;;;;;;;14.34;51.19;96456.53;4964864;28;20605;-70
2022/11/13 01:30:13;;;;;;;0.10;0.10;;;;;;;14.35;51.15;96457.28;4973281;28;21751;-71
2022/11/13 01:32:58;;;;;;;0.53;0.53;;;;;;;14.29;50.68;96450.38;4972376;28;20449;-73
2022/11/13 01:35:44;;;;;;;0.17;0.17;;;;;;;14.21;50.96;96451.53;4963123;28;21119;-71
2022/11/13 01:38:29;;;;;;;0.87;0.87;;;;;;;14.36;51.14;96454.41;4970936;28;20442;-69
2022/11/13 01:41:22;;;;;;;0.77;0.77;;;;;;;14.18;51.13;96457.25;4959077;28;20453;-71
2022/11/13 01:44:12;;;;;;;0.10;0.10;;;;;;;13.96;51.95;96435.28;4961606;28;20496;-72
2022/11/13 01:46:58;;;;;;;3.37;1.30;;;;;;;13.91;51.68;96428.09;4971974;28;20549;-72
2022/11/13 01:49:45;;;;;;;0.00;0.00;;;;;;;14.20;51.48;96431.47;4959850;28;20533;-72
2022/11/13 01:52:36;;;;;;;0.43;0.30;;;;;;;14.15;50.92;96436.66;4951491;28;20578;-72
2022/11/13 01:55:22;;;;;;;0.30;0.30;;;;;;;14.16;51.03;96435.59;4952041;28;20447;-71
2022/11/13 01:58:10;;;;;;;0.57;0.57;;;;;;;14.15;50.55;96441.94;4953077;28;20438;-72
2022/11/13 02:00:55;;;;;;;0.17;0.17;;;;;;;14.28;50.91;96438.19;4970205;28;20871;-70
2022/11/13 02:03:41;;;;;;;0.00;0.00;;;;;;;14.16;50.98;96435.59;4960705;28;20493;-71
2022/11/13 02:06:32;;;;;;;0.33;0.33;;;;;;;14.36;50.89;96443.09;4953024;28;20918;-70
2022/11/13 02:09:21;;;;;;;0.07;0.07;;;;;;;14.38;50.74;96439.16;4954663;28;20459;-70
2022/11/13 02:12:10;;;;;;;0.97;0.67;;;;;;;14.33;50.86;96444.34;4972057;28;20457;-72
2022/11/13 02:14:58;;;;;;;0.10;0.10;;;;;;;14.16;50.76;96432.97;4959195;28;20449;-70
2022/11/13 02:17:50;;;;;;;0.00;0.00;;;;;;;14.31;50.68;96440.34;4970334;28;20450;-71
2022/11/13 02:20:47;;;;;;;0.10;0.10;;;;;;;14.18;51.43;96441.44;4963521;28;20446;-73
2022/11/13 02:23:52;;;;;;;3.50;0.93;;;;;;;14.17;51.50;96439.84;4959489;28;20904;-70
2022/11/13 02:26:39;;;;;;;0.20;0.20;;;;;;;14.37;50.56;96437.56;4966826;28;20442;-76
2022/11/13 02:29:24;;;;;;;0.10;0.10;;;;;;;14.09;51.28;96432.34;4965331;28;20446;-72
2022/11/13 02:32:09;;;;;;;0.00;0.00;;;;;;;14.07;51.68;96434.41;4960840;28;20454;-72
2022/11/13 02:34:55;;;;;;;0.23;0.23;;;;;;;14.31;51.44;96435.88;4968602;28;21030;-71
2022/11/13 02:37:41;;;;;;;0.13;0.13;;;;;;;14.21;50.66;96425.16;4963703;28;20446;-71
2022/11/13 02:40:27;;;;;;;0.00;0.00;;;;;;;14.19;51.24;96429.88;4971691;28;20445;-71
2022/11/13 02:43:13;;;;;;;0.30;0.30;;;;;;;14.20;50.84;96423.56;4969633;28;20445;-73
2022/11/13 02:45:58;;;;;;;0.67;0.37;;;;;;;14.35;51.21;96431.72;4961973;28;20652;-73
2022/11/13 02:48:44;;;;;;;0.43;0.40;;;;;;;14.24;51.07;96432.59;4966933;28;20446;-72
2022/11/13 02:51:29;;;;;;;0.00;0.00;;;;;;;14.25;50.83;96431.53;4951788;28;20614;-72
2022/11/13 02:54:14;;;;;;;0.23;0.23;;;;;;;13.94;52.00;96426.84;4952175;28;20454;-72
2022/11/13 02:57:02;;;;;;;0.10;0.10;;;;;;;13.87;52.18;96428.81;4952054;28;20473;-71
2022/11/13 02:59:47;;;;;;;0.60;0.60;;;;;;;13.55;53.49;96427.72;4959289;28;20814;-73
2022/11/13 03:02:33;;;;;;;0.63;0.63;;;;;;;14.07;52.46;96443.13;4956722;28;20443;-70
2022/11/13 03:05:19;;;;;;;0.20;0.20;;;;;;;13.86;52.54;96443.84;4970837;28;20501;-71
2022/11/13 03:08:05;;;;;;;0.07;0.07;;;;;;;13.91;52.82;96448.38;4952212;28;20489;-72
2022/11/13 03:10:52;;;;;;;0.20;0.20;;;;;;;13.99;52.60;96445.38;4965413;28;20544;-73
2022/11/13 03:13:38;;;;;;;0.63;0.63;;;;;;;13.69;53.16;96439.56;4961136;28;21025;-73
2022/11/13 03:16:23;;;;;;;1.37;1.27;;;;;;;13.79;52.62;96431.84;4956903;28;20525;-69
2022/11/13 03:19:08;;;;;;;0.00;0.00;;;;;;;13.48;53.31;96446.31;4971173;28;20566;-73
2022/11/13 03:21:54;;;;;;;0.73;0.73;;;;;;;13.97;52.78;96442.16;4969795;28;20811;-72
2022/11/13 03:24:40;;;;;;;0.10;0.10;;;;;;;14.17;52.10;96438.03;4968555;28;20481;-72
2022/11/13 03:27:25;;;;;;;0.03;0.03;;;;;;;14.05;51.49;96431.25;4951945;28;20462;-72
2022/11/13 03:30:11;;;;;;;0.03;0.03;;;;;;;13.62;53.25;96452.09;4951892;28;20434;-70
2022/11/13 03:32:57;;;;;;;1.93;1.13;;;;;;;14.01;52.43;96451.22;4964781;28;20513;-70
2022/11/13 03:35:42;;;;;;;1.10;0.60;;;;;;;14.22;52.30;96437.28;4960258;28;20985;-71
2022/11/13 03:38:32;;;;;;;0.37;0.37;;;;;;;14.18;51.43;96446.72;4970570;28;20443;-72
2022/11/13 03:41:18;;;;;;;0.27;0.20;;;;;;;13.77;52.56;96433.91;4957220;28;20537;-70
2022/11/13 03:44:04;;;;;;;0.17;0.17;;;;;;;13.78;53.05;96446.03;4951996;28;20618;-72
2022/11/13 03:46:49;;;;;;;0.27;0.27;;;;;;;13.21;53.70;96390.78;4952572;28;20566;-73
2022/11/13 03:49:35;;;;;;;0.10;0.10;;;;;;;14.19;51.72;96448.34;4977617;28;20450;-69
2022/11/13 03:52:20;;;;;;;0.10;0.10;;;;;;;14.36;51.79;96454.41;4960285;28;20542;-71
2022/11/13 03:55:06;;;;;;;0.57;0.50;;;;;;;14.47;51.24;96455.38;4960162;28;20965;-71
2022/11/13 03:57:52;;;;;;;0.00;0.00;;;;;;;14.41;51.39;96457.16;4970632;28;20441;-71
2022/11/13 04:00:39;;;;;;;0.00;0.00;;;;;;;14.58;51.45;96452.63;4970631;28;20593;-74
2022/11/13 04:03:24;;;;;;;0.27;0.27;;;;;;;14.57;50.89;96445.78;4970248;28;20441;-73
2022/11/13 04:06:11;;;;;;;0.10;0.10;;;;;;;14.28;51.76;96444.28;4956974;28;20936;-71
2022/11/13 04:08:56;;;;;;;0.27;0.27;;;;;;;14.20;51.92;96460.47;4957759;28;20461;-71
2022/11/13 04:11:42;;;;;;;0.50;0.50;;;;;;;14.60;51.26;96452.38;4951539;28;20438;-71
2022/11/13 04:14:27;;;;;;;0.43;0.43;;;;;;;14.16;52.09;96454.06;4971150;28;20450;-70
2022/11/13 04:17:13;;;;;;;0.40;0.40;;;;;;;13.86;53.31;96443.03;4966326;28;20558;-72
2022/11/13 04:19:58;;;;;;;0.20;0.20;;;;;;;14.02;53.27;96452.78;4973902;28;20425;-74
2022/11/13 04:22:43;;;;;;;0.30;0.30;;;;;;;14.41;51.69;96446.59;4960202;28;20503;-73
2022/11/13 04:25:29;;;;;;;1.70;0.73;;;;;;;14.45;51.58;96447.69;4973863;28;20493;-70
2022/11/13 04:28:14;;;;;;;0.10;0.10;;;;;;;14.46;51.44;96436.13;4974109;28;20537;-72
2022/11/13 04:31:00;;;;;;;0.20;0.20;;;;;;;14.45;51.35;96447.69;4974165;28;20536;-72
2022/11/13 04:33:45;;;;;;;1.43;1.17;;;;;;;14.74;51.52;96440.47;4973791;28;20569;-73
2022/11/13 04:36:30;;;;;;;0.23;0.23;;;;;;;14.63;51.70;96441.38;4960129;28;20454;-72
2022/11/13 04:39:16;;;;;;;0.10;0.10;;;;;;;14.80;51.11;96445.56;4973863;28;20953;-71
2022/11/13 04:45:06;;;;;;;0.10;0.10;;;;;;;14.55;51.21;96447.03;4970261;28;20558;-71
2022/11/13 04:47:52;;;;;;;1.13;0.30;;;;;;;14.00;52.84;96449.59;4973437;28;20477;-69
2022/11/13 04:50:38;;;;;;;0.07;0.07;;;;;;;14.26;52.07;96446.34;4954187;28;20821;-72
2022/11/13 04:53:23;;;;;;;0.20;0.20;;;;;;;13.67;54.24;96439.81;4954156;28;20450;-71
2022/11/13 04:56:09;;;;;;;0.90;0.90;;;;;;;14.05;53.07;96447.06;4967746;28;20450;-72
2022/11/13 04:58:54;;;;;;;0.10;0.10;;;;;;;13.67;53.85;96452.16;4967709;28;20521;-70
2022/11/13 05:01:39;;;;;;;0.47;0.47;;;;;;;13.36;54.85;96448.19;4962754;28;20544;-72
2022/11/13 05:04:25;;;;;;;4.83;0.70;;;;;;;13.62;54.53;96457.34;4969171;28;20514;-71
2022/11/13 05:07:10;;;;;;;0.67;0.67;;;;;;;13.75;53.95;96441.25;4966390;28;20578;-70
2022/11/13 05:09:57;;;;;;;0.23;0.23;;;;;;;14.00;53.59;96439.03;4961176;28;20988;-71
2022/11/13 05:12:43;;;;;;;1.57;0.83;;;;;;;14.15;52.81;96441.94;4972943;28;21016;-71
2022/11/13 05:15:29;;;;;;;1.07;0.93;;;;;;;14.21;52.96;96454.16;4973049;28;20535;-70
2022/11/13 05:18:14;;;;;;;0.30;0.30;;;;;;;13.77;54.09;96449.72;4967178;28;20941;-74
2022/11/13 05:21:00;;;;;;;0.77;0.60;;;;;;;14.19;52.94;96448.34;4953958;28;21053;-71
2022/11/13 05:23:45;;;;;;;1.40;1.30;;;;;;;14.07;52.96;96460.78;4973336;28;20540;-71
2022/11/13 05:26:31;;;;;;;0.97;0.97;;;;;;;13.69;54.21;96452.75;4968486;28;20817;-72
2022/11/13 05:29:17;;;;;;;0.40;0.40;;;;;;;14.21;52.83;96448.91;4965980;28;20441;-70
2022/11/13 05:32:02;;;;;;;1.00;0.83;;;;;;;14.43;52.52;96452.44;4973536;28;20930;-71
2022/11/13 05:34:48;;;;;;;0.57;0.57;;;;;;;14.43;52.67;96444.53;4971019;28;20442;-72
2022/11/13 05:37:33;;;;;;;2.40;1.33;;;;;;;14.37;52.20;96461.31;4953178;28;20447;-71
2022/11/13 05:40:18;;;;;;;1.03;0.93;;;;;;;14.33;52.57;96457.53;4958329;28;20450;-72
2022/11/13 05:43:04;;;;;;;1.37;1.27;;;;;;;14.27;52.50;96458.50;4972239;28;20714;-70
2022/11/13 05:45:49;;;;;;;1.53;1.00;;;;;;;14.42;52.27;96464.00;4972274;28;20641;-70
2022/11/13 05:48:36;;;;;;;0.70;0.70;;;;;;;14.16;52.43;96469.88;4955843;28;20515;-71
2022/11/13 05:51:25;;;;;;;1.13;0.97;;;;;;;14.47;52.11;96472.00;4956801;28;20447;-72
2022/11/13 05:54:10;;;;;;;0.63;0.63;;;;;;;13.96;52.88;96466.91;4968587;28;20443;-71
2022/11/13 05:56:55;;;;;;;1.70;0.63;;;;;;;13.93;52.31;96470.03;4952747;28;20457;-71
2022/11/13 05:59:41;;;;;;;1.30;1.20;;;;;;;14.35;52.33;96473.91;4959857;28;20768;-70
2022/11/13 06:02:26;;;;;;;0.27;0.27;;;;;;;14.21;51.72;96473.41;4956587;28;20498;-72
2022/11/13 06:05:12;;;;;;;0.17;0.17;;;;;;;14.65;51.29;96484.91;4951803;28;20485;-74
2022/11/13 06:07:57;;;;;;;1.23;1.10;;;;;;;14.47;51.60;96485.19;4952299;28;20827;-71
2022/11/13 06:10:42;;;;;;;0.97;0.50;;;;;;;14.44;51.57;96487.50;4965878;28;20586;-71
2022/11/13 06:13:28;;;;;;;1.57;0.93;;;;;;;14.60;51.56;96476.94;4960428;28;20815;-72
2022/11/13 06:16:17;;;;;;;0.67;0.67;;;;;;;14.41;51.63;96483.53;4971387;28;20465;-72
2022/11/13 06:19:05;;;;;;;0.73;0.73;;;;;;;14.46;51.78;96486.22;4972182;28;20866;-73
2022/11/13 06:21:51;;;;;;;0.30;0.30;;;;;;;14.62;51.67;96487.25;4971680;28;20433;-72
2022/11/13 06:24:36;;;;;;;1.50;1.40;;;;;;;14.47;52.02;96472.00;4958139;28;20542;-71
2022/11/13 06:27:22;;;;;;;0.90;0.90;;;;;;;14.66;50.89;96475.97;4966919;28;20546;-70
2022/11/13 06:30:09;;;;;;;0.30;0.30;;;;;;;14.51;51.57;96486.31;4957721;28;20992;-69
2022/11/13 06:32:54;;;;;;;0.87;0.87;;;;;;;14.14;52.12;96478.03;4971072;28;20445;-72
2022/11/13 06:35:39;;;;;;;0.27;0.27;;;;;;;14.09;52.85;96485.88;4960869;28;20618;-71
2022/11/13 06:38:25;;;;;;;1.83;1.43;;;;;;;14.39;52.16;96480.31;4952886;28;21045;-72
2022/11/13 06:41:13;;;;;;;1.30;1.20;;;;;;;14.63;51.69;96481.75;4963677;28;20442;-71
2022/11/13 06:43:59;;;;;;;0.60;0.60;;;;;;;14.09;51.81;96475.31;4971207;28;20497;-71
2022/11/13 06:46:47;;;;;;;0.50;0.50;;;;;;;14.43;51.47;96491.19;4968052;28;20489;-72
2022/11/13 06:49:32;;;;;;;0.60;0.60;;;;;;;14.14;51.40;96482.53;4959137;28;20465;-72
2022/11/13 06:52:18;;;;;;;0.80;0.80;;;;;;;14.72;50.55;96479.50;4951765;28;20434;-71
2022/11/13 06:55:04;;;;;;;0.53;0.53;;;;;;;14.63;50.28;96473.84;4951788;28;20439;-71
2022/11/13 06:57:50;;;;;;;0.43;0.43;;;;;;;14.73;49.74;96483.72;4952400;28;20450;-70
2022/11/13 07:00:35;;;;;;;0.40;0.40;;;;;;;14.20;50.24;96478.91;4973491;28;20481;-73
2022/11/13 07:03:25;;;;;;;2.07;1.90;;;;;;;14.12;51.10;96479.31;4974350;28;20449;-70
2022/11/13 07:06:15;;;;;;;0.70;0.70;;;;;;;14.66;50.24;96470.69;4970654;28;20493;-71
2022/11/13 07:09:00;;;;;;;0.40;0.40;;;;;;;14.22;51.25;96480.28;4957683;28;20506;-72
2022/11/13 07:11:46;;;;;;;0.10;0.10;;;;;;;14.65;50.51;96469.09;4951033;28;20442;-73
2022/11/13 07:14:31;;;;;;;0.60;0.60;;;;;;;14.56;51.35;96475.81;4954214;28;20458;-71
2022/11/13 07:17:16;;;;;;;0.27;0.27;;;;;;;14.65;50.41;96481.50;4970452;28;20579;-71
2022/11/13 07:20:02;;;;;;;1.20;0.67;;;;;;;14.80;50.41;96482.50;4957535;28;20533;-72
2022/11/13 07:22:48;;;;;;;3.87;1.67;;;;;;;14.75;50.00;96485.06;4961277;28;20936;-72
2022/11/13 07:25:33;;;;;;;1.27;1.17;;;;;;;14.58;50.38;96473.75;4960534;28;20486;-70
2022/11/13 07:28:19;;;;;;;5.20;1.70;;;;;;;14.46;50.38;96488.06;4950499;28;20988;-71
2022/11/13 07:31:05;;;;;;;0.47;0.47;;;;;;;14.90;49.69;96485.31;4964449;28;20828;-71
2022/11/13 07:33:51;;;;;;;0.53;0.50;;;;;;;14.48;50.04;96478.88;4951403;28;20494;-72
2022/11/13 07:36:36;;;;;;;1.20;1.17;;;;;;;14.63;49.87;96481.75;4952974;28;20553;-70
2022/11/13 07:39:23;;;;;;;3.20;0.90;;;;;;;14.61;49.55;96477.75;4970171;28;21195;-71
2022/11/13 07:42:08;;;;;;;0.07;0.07;;;;;;;14.60;49.70;96479.56;4950649;28;20446;-71
2022/11/13 07:44:54;;;;;;;0.30;0.30;;;;;;;14.76;49.50;96476.09;4965372;28;20550;-71
2022/11/13 07:47:40;;;;;;;6.30;1.73;;;;;;;14.64;49.28;96478.06;4970163;28;20505;-73
2022/11/13 07:50:30;;;;;;;0.70;0.70;;;;;;;14.82;48.77;96480.44;4965994;28;20450;-70
2022/11/13 07:53:17;;;;;;;0.37;0.33;;;;;;;14.50;48.56;96497.09;4950494;28;20438;-69
2022/11/13 07:56:02;;;;;;;1.80;1.70;;;;;;;14.50;49.54;96486.53;4951100;28;20965;-74
2022/11/13 07:58:49;;;;;;;1.43;1.13;;;;;;;14.59;49.27;96490.38;4951557;28;21017;-72
2022/11/13 08:01:34;;;;;;;2.83;1.33;;;;;;;14.66;48.48;96486.53;4959043;28;20441;-71
2022/11/13 08:04:20;;;;;;;2.20;0.97;;;;;;;14.46;49.28;96486.22;4956367;28;21053;-71
2022/11/13 08:07:05;;;;;;;1.10;0.80;;;;;;;14.80;48.16;96473.78;4959620;28;20522;-72
2022/11/13 08:09:51;;;;;;;5.13;2.23;;;;;;;14.70;49.15;96490.28;4954845;28;20509;-69
2022/11/13 08:12:36;;;;;;;0.10;0.10;;;;;;;14.74;49.77;96486.13;4969073;28;20474;-71
2022/11/13 08:15:21;;;;;;;0.63;0.63;;;;;;;14.30;49.37;96492.31;4968835;28;20449;-70
2022/11/13 08:18:07;;;;;;;0.47;0.47;;;;;;;14.42;49.67;96482.47;4963711;28;20491;-69
2022/11/13 08:20:52;;;;;;;5.37;1.40;;;;;;;14.82;48.65;96480.44;4961943;28;20585;-68
2022/11/13 08:23:40;;;;;;;0.57;0.57;;;;;;;14.14;50.17;96488.59;4951002;28;21090;-69
2022/11/13 08:26:25;;;;;;;1.10;1.10;;;;;;;14.59;49.37;96470.06;4962502;28;20494;-72
2022/11/13 08:29:10;;;;;;;1.63;1.53;;;;;;;14.60;49.24;96490.13;4950840;28;21052;-70
2022/11/13 08:31:57;;;;;;;0.50;0.50;;;;;;;14.59;48.88;96485.09;4969413;28;20425;-72
2022/11/13 08:34:42;;;;;;;2.00;1.47;;;;;;;14.54;49.23;96483.19;4970030;28;20906;-69
2022/11/13 08:37:27;;;;;;;0.73;0.73;;;;;;;14.68;48.39;96484.44;4969240;28;21000;-72
2022/11/13 08:40:13;;;;;;;1.03;1.03;;;;;;;14.66;48.88;96491.00;4974693;28;20533;-72
2022/11/13 08:43:00;;;;;;;0.63;0.63;;;;;;;14.50;49.16;96495.25;4968784;28;20458;-70
2022/11/13 08:45:46;;;;;;;0.50;0.50;;;;;;;14.72;49.04;96496.13;4951190;28;20509;-71
2022/11/13 08:48:32;;;;;;;0.80;0.80;;;;;;;14.67;49.20;96493.41;4946889;29;20605;-70
2022/11/13 08:51:18;;;;;;;5.57;2.57;;;;;;;14.77;48.99;96496.19;4939890;28;20495;-71
2022/11/13 08:54:04;;;;;;;0.27;0.27;;;;;;;14.84;48.74;96493.38;4947099;29;20446;-71
2022/11/13 08:56:49;;;;;;;0.40;0.40;;;;;;;14.15;49.94;96502.56;4950397;28;20942;-69
2022/11/13 08:59:41;;;;;;;2.07;1.87;;;;;;;13.90;50.33;96507.41;4949888;29;20430;-69
2022/11/13 09:02:27;;;;;;;1.50;1.17;;;;;;;14.58;49.89;96505.41;4946828;28;20446;-73
2022/11/13 09:05:13;;;;;;;0.37;0.37;;;;;;;14.76;48.64;96499.09;4938323;28;20481;-70
2022/11/13 09:08:00;;;;;;;1.27;1.20;;;;;;;14.21;50.03;96501.63;4939535;29;20997;-73
2022/11/13 09:10:46;;;;;;;1.17;1.07;;;;;;;14.68;49.31;96505.56;4947242;28;20458;-67
2022/11/13 09:13:33;;;;;;;2.57;1.93;;;;;;;14.31;50.13;96501.00;4943175;29;20442;-69
2022/11/13 09:16:24;;;;;;;6.10;5.03;;;;;;;14.19;50.23;96477.34;4953432;28;20538;-73
2022/11/13 09:19:09;;;;;;;2.17;1.93;;;;;;;14.94;49.42;96489.03;4953117;29;20534;-73
2022/11/13 09:21:55;;;;;;;12.17;9.20;;;;;;;14.37;49.56;96498.22;4953410;28;20576;-73
2022/11/13 09:24:40;;;;;;;173.97;97.47;;;;;;;15.15;48.43;96495.38;4950711;29;20714;-66
2022/11/13 09:27:26;;;;;;;49.57;32.83;;;;;;;15.17;48.44;96502.03;4953034;28;20446;-68
2022/11/13 09:30:12;;;;;;;71.73;36.03;;;;;;;15.27;48.01;96492.63;4948981;28;20948;-68
2022/11/13 09:32:59;;;;;;;356.60;255.40;;;;;;;15.30;47.83;96484.22;4937834;29;20444;-64
2022/11/13 09:35:45;;;;;;;54.70;32.10;;;;;;;15.64;47.25;96488.31;4943337;28;21093;-67
2022/11/13 09:38:30;;;;;;;2.50;2.30;;;;;;;15.19;47.90;96486.75;4934376;29;20451;-67
2022/11/13 09:41:30;;;;;;;0.90;0.90;;;;;;;15.67;47.74;96482.56;4945136;28;20446;-73
2022/11/13 09:44:40;;;;;;;1.33;1.33;;;;;;;15.49;46.96;96473.09;4933636;29;20444;-68
2022/11/13 09:47:32;;;;;;;6.37;5.73;;;;;;;15.90;46.35;96482.25;4952273;28;20916;-69
2022/11/13 09:50:27;;;;;;;1.53;1.43;;;;;;;15.65;47.16;96480.16;4937073;28;20448;-68
2022/11/13 09:53:14;;;;;;;8.10;4.20;;;;;;;15.25;47.49;96464.59;4942209;28;20602;-69
2022/11/13 09:55:59;;;;;;;0.87;0.87;;;;;;;15.20;46.91;96471.66;4934798;28;21119;-67
2022/11/13 09:59:11;;;;;;;0.87;0.87;;;;;;;15.43;46.92;96468.00;4947881;29;20797;-76
2022/11/13 10:01:56;;;;;;;0.47;0.27;;;;;;;15.52;46.59;96469.19;4945615;28;20528;-67
2022/11/13 10:04:57;;;;;;;0.50;0.50;;;;;;;15.23;47.27;96465.91;4951685;28;20462;-71
2022/11/13 10:07:52;;;;;;;1.03;1.03;;;;;;;15.58;46.60;96468.19;4939147;29;20458;-71
2022/11/13 10:10:48;;;;;;;0.70;0.70;;;;;;;15.71;46.35;96465.16;4951476;28;20451;-70
2022/11/13 10:13:50;;;;;;;1.73;1.23;;;;;;;15.91;46.34;96462.72;4944412;29;20997;-73
2022/11/13 10:16:55;;;;;;;0.20;0.20;;;;;;;16.09;45.40;96457.84;4952163;28;20509;-75
2022/11/13 10:19:58;;;;;;;2.43;1.80;;;;;;;15.68;46.05;96457.72;4939780;29;20490;-74
2022/11/13 10:22:50;;;;;;;1.77;0.97;;;;;;;15.91;47.21;96457.44;4933664;29;20442;-69
2022/11/13 10:25:37;;;;;;;3.20;2.70;;;;;;;16.10;45.69;96448.06;4940924;28;20503;-71
2022/11/13 10:28:26;;;;;;;1.07;1.07;;;;;;;15.57;46.58;96432.22;4934214;29;20448;-72
2022/11/13 10:31:49;;;;;;;0.73;0.73;;;;;;;16.02;45.25;96445.91;4942653;28;20797;-75
2022/11/13 10:34:34;;;;;;;3.53;2.47;;;;;;;16.43;44.77;96445.16;4951761;28;20594;-65
2022/11/13 10:37:23;;;;;;;0.97;0.93;;;;;;;16.54;44.66;96435.47;4948400;28;20450;-70
2022/11/13 10:40:08;;;;;;;0.50;0.50;;;;;;;16.51;44.46;96439.44;4938267;29;20459;-68
2022/11/13 10:43:23;;;;;;;0.90;0.90;;;;;;;16.20;45.08;96440.22;4951364;29;20439;-71
2022/11/13 10:46:19;;;;;;;0.80;0.80;;;;;;;16.56;43.65;96434.16;4951619;28;21025;-67
2022/11/13 10:49:19;;;;;;;1.83;1.70;;;;;;;16.54;43.64;96430.97;4934107;29;20439;-68
2022/11/13 10:52:20;;;;;;;0.93;0.63;;;;;;;16.28;45.08;96425.75;4946410;28;20498;-67
2022/11/13 10:55:34;;;;;;;0.60;0.60;;;;;;;16.41;44.96;96423.44;4932817;29;20451;-69
2022/11/13 10:58:20;;;;;;;1.30;1.20;;;;;;;16.50;44.66;96426.44;4941794;28;20454;-66
2022/11/13 11:01:22;;;;;;;4.00;1.57;;;;;;;16.74;44.33;96425.00;4932632;28;20466;-68
2022/11/13 11:04:18;;;;;;;0.60;0.60;;;;;;;16.42;44.40;96422.41;4931449;29;20492;-66
2022/11/13 11:07:12;;;;;;;0.30;0.30;;;;;;;15.69;45.66;96419.69;4942892;28;20495;-66
2022/11/13 11:10:17;;;;;;;2.03;1.63;;;;;;;16.05;45.39;96416.31;4942782;29;20462;-65
2022/11/13 11:13:21;;;;;;;5.50;2.80;;;;;;;16.20;45.28;96413.78;4939487;29;20462;-68
2022/11/13 11:16:10;;;;;;;0.87;0.87;;;;;;;16.26;44.94;96407.44;4936370;28;20447;-68
2022/11/13 11:19:05;;;;;;;1.33;1.23;;;;;;;16.61;44.65;96405.06;4937357;29;20448;-71
2022/11/13 11:22:18;;;;;;;1.70;1.60;;;;;;;16.26;44.71;96401.38;4933934;28;20515;-71
2022/11/13 11:25:15;;;;;;;1.77;0.97;;;;;;;16.06;44.50;96407.31;4946549;28;20523;-69
2022/11/13 11:28:13;;;;;;;2.43;1.97;;;;;;;16.60;44.05;96392.91;4950280;28;20538;-67
2022/11/13 11:31:20;;;;;;;4.50;1.70;;;;;;;16.16;45.27;96394.19;4934590;28;20459;-67
2022/11/13 11:34:17;;;;;;;0.63;0.63;;;;;;;16.21;44.40;96396.84;4940919;29;20447;-68
2022/11/13 11:37:11;;;;;;;0.93;0.80;;;;;;;15.87;44.84;96393.69;4951173;28;20447;-67
2022/11/13 11:40:02;;;;;;;0.30;0.30;;;;;;;16.39;44.13;96388.50;4937444;29;20443;-68
2022/11/13 11:43:00;;;;;;;0.70;0.70;;;;;;;16.07;45.42;96393.06;4950867;28;20525;-71
2022/11/13 11:45:46;;;;;;;1.23;1.23;;;;;;;16.02;44.94;96390.38;4950796;28;20566;-68
2022/11/13 11:48:33;;;;;;;2.00;1.37;;;;;;;16.42;44.10;96385.38;4937679;29;20580;-72
2022/11/13 11:51:40;;;;;;;3.63;2.23;;;;;;;16.69;43.71;96379.97;4943870;28;20450;-64
2022/11/13 11:54:40;;;;;;;0.37;0.37;;;;;;;16.58;43.54;96379.13;4932312;29;20451;-69
2022/11/13 11:57:32;;;;;;;0.50;0.47;;;;;;;16.37;44.02;96377.38;4942508;28;20450;-68
2022/11/13 12:00:19;;;;;;;0.70;0.70;;;;;;;16.26;44.18;96380.22;4931663;29;20967;-67
2022/11/13 12:03:29;;;;;;;0.43;0.43;;;;;;;15.87;44.84;96380.47;4942455;28;20455;-68
2022/11/13 12:06:39;;;;;;;0.73;0.73;;;;;;;16.12;44.23;96374.56;4946585;28;20483;-71
2022/11/13 12:09:32;;;;;;;1.67;1.33;;;;;;;16.15;44.83;96374.06;4939766;28;20450;-67
2022/11/13 12:12:41;;;;;;;0.63;0.63;;;;;;;16.23;44.15;96371.75;4951332;28;20993;-69
2022/11/13 12:15:54;;;;;;;1.23;1.13;;;;;;;16.43;44.32;96365.78;4941885;29;20458;-70
2022/11/13 12:18:48;;;;;;;0.30;0.30;;;;;;;16.67;43.96;96361.72;4942849;29;20478;-71
2022/11/13 12:22:02;;;;;;;1.67;1.57;;;;;;;16.76;45.48;96365.47;4936949;28;20550;-66
2022/11/13 12:24:54;;;;;;;15.87;1.53;;;;;;;16.67;43.78;96360.91;4950778;28;20536;-70
2022/11/13 12:27:57;;;;;;;8.73;5.40;;;;;;;17.15;42.75;96364.00;4950497;28;20611;-68
2022/11/13 12:30:57;;;;;;;1.83;1.70;;;;;;;16.91;43.12;96362.88;4941227;28;20519;-66
2022/11/13 12:33:58;;;;;;;0.53;0.53;;;;;;;16.52;43.03;96353.69;4938675;28;20443;-67
2022/11/13 12:36:46;;;;;;;0.77;0.77;;;;;;;16.88;42.83;96346.69;4935442;28;20451;-69
2022/11/13 12:39:38;;;;;;;1.13;1.10;;;;;;;16.65;42.71;96350.59;4935102;29;20507;-64
2022/11/13 12:42:43;;;;;;;0.90;0.90;;;;;;;16.67;44.99;96356.41;4944200;28;20593;-66
2022/11/13 12:45:37;;;;;;;0.73;0.73;;;;;;;17.00;43.02;96361.31;4940285;29;20482;-67
2022/11/13 12:48:36;;;;;;;0.97;0.97;;;;;;;16.90;42.94;96360.47;4938661;28;20502;-67
2022/11/13 12:51:21;;;;;;;0.90;0.90;;;;;;;16.74;42.50;96356.97;4935352;28;20455;-69
2022/11/13 12:54:09;;;;;;;1.50;1.40;;;;;;;16.86;42.76;96357.53;4937504;29;20505;-66
2022/11/13 12:57:12;;;;;;;0.53;0.53;;;;;;;16.17;42.98;96356.09;4946374;28;20457;-68
2022/11/13 13:00:11;;;;;;;2.00;1.77;;;;;;;16.75;42.63;96353.25;4944130;28;20455;-67
2022/11/13 13:03:11;;;;;;;2.53;0.83;;;;;;;16.90;41.90;96345.38;4933577;28;20448;-68
2022/11/13 13:06:26;;;;;;;0.73;0.73;;;;;;;17.02;42.31;96348.59;4944159;29;20506;-66
2022/11/13 13:09:21;;;;;;;1.03;1.03;;;;;;;16.68;42.14;96346.59;4940080;29;20824;-67
2022/11/13 13:12:39;;;;;;;0.87;0.87;;;;;;;17.10;42.21;96340.16;4949758;28;20443;-69
2022/11/13 13:15:45;;;;;;;0.43;0.43;;;;;;;16.28;43.12;96331.28;4951471;29;20871;-71
2022/11/13 13:18:33;;;;;;;2.90;2.57;;;;;;;17.11;42.21;96346.25;4952226;28;20445;-65
2022/11/13 13:21:19;;;;;;;2.63;2.43;;;;;;;17.32;41.53;96323.25;4934656;29;21175;-70